Time;durP1;ratioP1;P1;durP2;ratioP2;P2;SDS_P1;SDS_P2;PMS_P1;PMS_P2;Temp;Humidity;BMP_temperature;BMP_pressure;BME280_temperature;BME280_humidity;BME280_pressure;Samples;Min_cycle;Max_cycle;Signal;HPM_P1;HPM_P2
2023/01/11 00:00:09;;;;;;;9.98;6.90;;;;;;;;;;5035921;28;20026;-81
2023/01/11 00:02:36;;;;;;;11.68;7.15;;;;;;;;;;5033131;28;20465;-82
2023/01/11 00:05:02;;;;;;;11.18;7.80;;;;;;;;;;5038255;28;20049;-82
2023/01/11 00:07:28;;;;;;;11.45;7.97;;;;;;;;;;5049782;28;20033;-82
2023/01/11 00:09:54;;;;;;;8.38;7.10;;;;;;;;;;5043892;28;20030;-82
2023/01/11 00:12:20;;;;;;;8.07;6.70;;;;;;;;;;5028503;28;20055;-82
2023/01/11 00:14:46;;;;;;;10.70;7.30;;;;;;;;;;5028814;28;20028;-82
2023/01/11 00:17:12;;;;;;;10.65;7.05;;;;;;;;;;5042204;28;20495;-82
2023/01/11 00:19:38;;;;;;;11.95;6.93;;;;;;;;;;5037725;28;20030;-82
2023/01/11 00:22:04;;;;;;;9.27;6.93;;;;;;;;;;5035079;28;20388;-81
2023/01/11 00:24:30;;;;;;;9.77;6.97;;;;;;;;;;5041042;28;20049;-82
2023/01/11 00:26:56;;;;;;;9.60;6.72;;;;;;;;;;5028135;28;20021;-82
2023/01/11 00:29:22;;;;;;;7.70;6.20;;;;;;;;;;5039845;28;20491;-82
2023/01/11 00:31:48;;;;;;;7.28;6.20;;;;;;;;;;5039716;28;20025;-82
2023/01/11 00:34:14;;;;;;;8.40;6.22;;;;;;;;;;5038579;28;20392;-82
2023/01/11 00:36:40;;;;;;;6.90;5.80;;;;;;;;;;5038412;28;20103;-82
2023/01/11 00:39:05;;;;;;;6.40;5.50;;;;;;;;;;5032845;28;20096;-82
2023/01/11 00:49:45;;;;;;;6.10;4.35;;;;;;;;;;5033168;28;20048;-82
2023/01/11 00:52:11;;;;;;;6.63;5.13;;;;;;;;;;5027214;28;20452;-81
2023/01/11 00:54:38;;;;;;;6.80;5.20;;;;;;;;;;5037358;28;20026;-82
2023/01/11 00:57:06;;;;;;;9.75;5.95;;;;;;;;;;5023034;28;20396;-82
2023/01/11 00:59:32;;;;;;;9.38;6.20;;;;;;;;;;4999503;28;20060;-82
2023/01/11 01:01:58;;;;;;;9.23;7.10;;;;;;;;;;5037682;28;20021;-82
2023/01/11 01:04:24;;;;;;;11.25;7.43;;;;;;;;;;5023038;28;20459;-82
2023/01/11 01:06:50;;;;;;;11.25;7.40;;;;;;;;;;5029510;28;20025;-82
2023/01/11 01:09:16;;;;;;;9.57;6.90;;;;;;;;;;5036717;28;20029;-82
2023/01/11 01:11:42;;;;;;;12.90;7.82;;;;;;;;;;5037101;28;20021;-82
2023/01/11 01:14:30;;;;;;;11.57;7.30;;;;;;;;;;5017840;28;20029;-82
2023/01/11 01:16:56;;;;;;;9.15;6.85;;;;;;;;;;5027797;28;20018;-82
2023/01/11 01:19:22;;;;;;;10.75;7.43;;;;;;;;;;5034673;28;20030;-82
2023/01/11 01:21:49;;;;;;;12.52;7.38;;;;;;;;;;5024448;28;20057;-82
2023/01/11 01:24:15;;;;;;;8.00;6.32;;;;;;;;;;5017194;28;20026;-82
2023/01/11 01:26:41;;;;;;;9.77;7.30;;;;;;;;;;4998768;28;20032;-82
2023/01/11 01:29:08;;;;;;;10.93;7.75;;;;;;;;;;5020910;28;20017;-82
2023/01/11 01:31:34;;;;;;;10.38;7.25;;;;;;;;;;5017554;28;20022;-81
2023/01/11 01:33:59;;;;;;;10.57;6.43;;;;;;;;;;5033003;28;20069;-81
2023/01/11 01:36:26;;;;;;;7.82;6.75;;;;;;;;;;5018191;28;20025;-81
2023/01/11 01:38:51;;;;;;;10.45;6.82;;;;;;;;;;5033902;28;20030;-81
2023/01/11 01:41:18;;;;;;;10.77;6.88;;;;;;;;;;5016623;28;20029;-81
2023/01/11 01:43:48;;;;;;;11.32;6.68;;;;;;;;;;5032952;28;20029;-82
2023/01/11 01:46:15;;;;;;;10.18;6.35;;;;;;;;;;5036103;28;20036;-82
2023/01/11 01:48:42;;;;;;;12.48;5.97;;;;;;;;;;5036023;28;20037;-82
2023/01/11 01:51:10;;;;;;;9.30;4.45;;;;;;;;;;5036255;28;20100;-81
2023/01/11 01:53:39;;;;;;;13.13;4.45;;;;;;;;;;5036920;28;20369;-81
2023/01/11 01:56:07;;;;;;;8.50;3.57;;;;;;;;;;5035796;28;20025;-81
2023/01/11 01:58:44;;;;;;;6.07;3.53;;;;;;;;;;5022529;28;20476;-81
2023/01/11 02:03:57;;;;;;;11.77;3.75;;;;;;;;;;5028607;28;20075;-81
2023/01/11 02:06:23;;;;;;;10.65;3.63;;;;;;;;;;5022800;28;20033;-82
2023/01/11 02:08:53;;;;;;;11.85;3.30;;;;;;;;;;5029181;28;20057;-82
2023/01/11 02:11:31;;;;;;;9.50;2.92;;;;;;;;;;5031172;28;20026;-81
2023/01/11 02:14:05;;;;;;;15.63;2.80;;;;;;;;;;5001753;28;20117;-82
2023/01/11 02:16:31;;;;;;;9.65;2.65;;;;;;;;;;5022523;28;20475;-82
2023/01/11 02:18:58;;;;;;;9.18;2.58;;;;;;;;;;5029464;28;20391;-82
2023/01/11 02:21:35;;;;;;;8.77;2.38;;;;;;;;;;5023319;28;20033;-82
2023/01/11 02:24:20;;;;;;;13.50;3.13;;;;;;;;;;5041338;28;20056;-82
2023/01/11 02:26:58;;;;;;;10.05;2.50;;;;;;;;;;5041902;28;20048;-82
2023/01/11 02:29:39;;;;;;;8.27;1.67;;;;;;;;;;5023326;28;20487;-82
2023/01/11 02:32:26;;;;;;;9.05;2.03;;;;;;;;;;5020408;28;20025;-82
2023/01/11 02:35:02;;;;;;;13.20;2.30;;;;;;;;;;5034533;28;20034;-82
2023/01/11 02:37:28;;;;;;;13.00;2.97;;;;;;;;;;5038314;28;20040;-82
2023/01/11 02:40:13;;;;;;;10.90;2.67;;;;;;;;;;5034707;28;20029;-82
2023/01/11 02:45:30;;;;;;;15.93;2.22;;;;;;;;;;5031282;28;20147;-81
2023/01/11 02:47:59;;;;;;;17.50;3.35;;;;;;;;;;5039797;28;20029;-81
2023/01/11 02:50:31;;;;;;;16.55;2.30;;;;;;;;;;5028330;28;20109;-81
2023/01/11 02:53:04;;;;;;;17.25;2.10;;;;;;;;;;5031236;28;20052;-82
2023/01/11 02:55:33;;;;;;;14.38;2.53;;;;;;;;;;5038646;28;20029;-81
2023/01/11 02:58:00;;;;;;;20.00;2.70;;;;;;;;;;5029421;28;20029;-81
2023/01/11 03:00:26;;;;;;;21.10;2.65;;;;;;;;;;5026218;28;20034;-81
2023/01/11 03:03:13;;;;;;;14.82;2.25;;;;;;;;;;5018984;28;20022;-82
2023/01/11 03:05:44;;;;;;;18.38;2.35;;;;;;;;;;5024219;28;20046;-82
2023/01/11 03:08:19;;;;;;;18.63;2.30;;;;;;;;;;5007250;28;20117;-81
2023/01/11 03:10:45;;;;;;;16.77;2.53;;;;;;;;;;5018392;28;20550;-81
2023/01/11 03:13:14;;;;;;;21.40;2.90;;;;;;;;;;5018047;28;20018;-82
2023/01/11 03:15:43;;;;;;;14.32;2.13;;;;;;;;;;5022507;28;20034;-82
2023/01/11 03:18:25;;;;;;;19.00;3.28;;;;;;;;;;5037268;28;20030;-82
2023/01/11 03:20:59;;;;;;;17.50;3.42;;;;;;;;;;5038186;28;20452;-82
2023/01/11 03:23:32;;;;;;;23.98;2.80;;;;;;;;;;5026674;28;20132;-82
2023/01/11 03:26:02;;;;;;;18.52;4.35;;;;;;;;;;5036683;28;20042;-82
2023/01/11 03:28:37;;;;;;;25.27;3.15;;;;;;;;;;5029954;28;20459;-82
2023/01/11 03:31:17;;;;;;;25.05;3.28;;;;;;;;;;5037254;28;20029;-82
2023/01/11 03:33:46;;;;;;;19.77;2.88;;;;;;;;;;5037798;28;20104;-82
2023/01/11 03:36:16;;;;;;;26.27;2.90;;;;;;;;;;5038135;28;20026;-82
2023/01/11 03:38:45;;;;;;;21.35;3.35;;;;;;;;;;5038074;28;20091;-82
2023/01/11 03:41:16;;;;;;;16.15;2.55;;;;;;;;;;5013785;28;20050;-82
2023/01/11 03:43:44;;;;;;;23.38;3.38;;;;;;;;;;5005072;28;20068;-82
2023/01/11 03:46:13;;;;;;;19.80;2.78;;;;;;;;;;5025530;28;20026;-82
2023/01/11 03:48:40;;;;;;;18.83;2.60;;;;;;;;;;5023268;28;20030;-82
2023/01/11 03:51:09;;;;;;;25.30;3.13;;;;;;;;;;5026002;28;20018;-82
2023/01/11 03:53:36;;;;;;;22.92;3.03;;;;;;;;;;4999826;28;20018;-82
2023/01/11 03:56:03;;;;;;;20.55;2.55;;;;;;;;;;5011113;28;20057;-81
2023/01/11 03:58:30;;;;;;;18.83;3.08;;;;;;;;;;5037290;28;20061;-82
2023/01/11 04:00:56;;;;;;;25.17;3.45;;;;;;;;;;5036900;28;20049;-82
2023/01/11 04:03:22;;;;;;;19.95;2.92;;;;;;;;;;5030751;28;20018;-82
2023/01/11 04:05:50;;;;;;;23.67;3.03;;;;;;;;;;5016711;28;20066;-82
2023/01/11 04:08:16;;;;;;;20.50;3.08;;;;;;;;;;5036014;28;20080;-82
2023/01/11 04:10:42;;;;;;;29.23;4.43;;;;;;;;;;5035918;28;20025;-82
2023/01/11 04:13:08;;;;;;;29.13;4.00;;;;;;;;;;5036110;28;20037;-82
2023/01/11 04:15:34;;;;;;;34.15;4.57;;;;;;;;;;5036618;28;20036;-81
2023/01/11 04:18:04;;;;;;;30.25;4.90;;;;;;;;;;5018265;28;20034;-81
2023/01/11 04:20:40;;;;;;;32.97;3.45;;;;;;;;;;5036397;28;20551;-81
2023/01/11 04:23:08;;;;;;;26.17;3.88;;;;;;;;;;5027845;28;20030;-81
2023/01/11 04:25:34;;;;;;;18.02;3.05;;;;;;;;;;5031537;28;20507;-81
2023/01/11 04:28:00;;;;;;;26.77;4.22;;;;;;;;;;5036070;28;20052;-81
2023/01/11 04:30:26;;;;;;;25.65;3.25;;;;;;;;;;5035901;28;20025;-81
2023/01/11 04:32:52;;;;;;;29.38;3.90;;;;;;;;;;5035793;28;20549;-81
2023/01/11 04:35:18;;;;;;;25.95;3.17;;;;;;;;;;5021831;28;20025;-81
2023/01/11 04:37:44;;;;;;;25.60;4.50;;;;;;;;;;5031459;28;20484;-81
2023/01/11 04:40:11;;;;;;;29.83;3.40;;;;;;;;;;5023025;28;20022;-81
2023/01/11 04:42:37;;;;;;;25.85;3.25;;;;;;;;;;5032844;28;20068;-81
2023/01/11 04:45:06;;;;;;;25.23;2.72;;;;;;;;;;5039367;28;20026;-82
2023/01/11 04:47:32;;;;;;;22.10;2.80;;;;;;;;;;5040006;28;20079;-82
2023/01/11 04:49:58;;;;;;;16.77;2.72;;;;;;;;;;5038759;28;20807;-81
2023/01/11 04:52:24;;;;;;;17.02;2.63;;;;;;;;;;5030638;28;20156;-81
2023/01/11 04:54:52;;;;;;;21.45;2.58;;;;;;;;;;5020433;28;20045;-81
2023/01/11 04:57:18;;;;;;;17.20;2.63;;;;;;;;;;5038862;28;20034;-82
2023/01/11 04:59:47;;;;;;;22.85;2.47;;;;;;;;;;5038614;28;20029;-82
2023/01/11 05:02:14;;;;;;;21.88;2.30;;;;;;;;;;5037614;28;20515;-82
2023/01/11 05:04:40;;;;;;;26.20;3.53;;;;;;;;;;5034325;28;20049;-82
2023/01/11 05:07:07;;;;;;;25.83;3.58;;;;;;;;;;5037581;28;20033;-82
2023/01/11 05:09:33;;;;;;;29.60;3.17;;;;;;;;;;5035512;28;20096;-82
2023/01/11 05:11:59;;;;;;;22.58;2.83;;;;;;;;;;5026202;28;20022;-82
2023/01/11 05:14:25;;;;;;;23.52;3.00;;;;;;;;;;5021239;28;20107;-82
2023/01/11 05:16:51;;;;;;;32.25;3.85;;;;;;;;;;5028049;28;20125;-81
2023/01/11 05:19:17;;;;;;;38.47;4.20;;;;;;;;;;5016344;28;20580;-81
2023/01/11 05:21:43;;;;;;;27.67;2.65;;;;;;;;;;5026464;28;20081;-82
2023/01/11 05:27:21;;;;;;;28.85;2.85;;;;;;;;;;5035911;28;20032;-81
2023/01/11 05:29:47;;;;;;;21.33;2.60;;;;;;;;;;5035988;28;20029;-81
2023/01/11 05:32:13;;;;;;;20.85;2.13;;;;;;;;;;5018098;28;20030;-81
2023/01/11 05:34:43;;;;;;;25.13;2.80;;;;;;;;;;5015030;28;20030;-82
2023/01/11 05:37:09;;;;;;;20.52;3.33;;;;;;;;;;5032628;28;20029;-82
2023/01/11 05:39:35;;;;;;;21.48;2.20;;;;;;;;;;5017493;28;20029;-81
2023/01/11 05:42:01;;;;;;;17.30;2.28;;;;;;;;;;5026151;28;20435;-82
2023/01/11 05:47:11;;;;;;;16.00;2.38;;;;;;;;;;5032856;28;20103;-82
2023/01/11 05:49:37;;;;;;;17.20;1.92;;;;;;;;;;5006247;28;20393;-82
2023/01/11 05:52:03;;;;;;;16.48;2.20;;;;;;;;;;5022152;28;20032;-82
2023/01/11 05:54:30;;;;;;;17.77;2.20;;;;;;;;;;5040657;28;20045;-82
2023/01/11 05:56:56;;;;;;;16.75;1.65;;;;;;;;;;5031834;28;20028;-82
2023/01/11 05:59:22;;;;;;;15.88;2.03;;;;;;;;;;5029108;28;20057;-82
2023/01/11 06:01:49;;;;;;;15.15;1.77;;;;;;;;;;5030980;28;20032;-82
2023/01/11 06:04:15;;;;;;;12.57;1.50;;;;;;;;;;5030294;28;20416;-82
2023/01/11 06:06:41;;;;;;;15.95;1.92;;;;;;;;;;5037982;28;20025;-82
2023/01/11 06:09:07;;;;;;;17.27;2.63;;;;;;;;;;5029192;28;20089;-82
2023/01/11 06:11:33;;;;;;;18.40;2.40;;;;;;;;;;5030599;28;20551;-82
2023/01/11 06:13:59;;;;;;;17.25;2.28;;;;;;;;;;5031165;28;20022;-81
2023/01/11 06:16:25;;;;;;;16.77;2.58;;;;;;;;;;5021267;28;20026;-81
2023/01/11 06:18:52;;;;;;;17.23;2.47;;;;;;;;;;5029022;28;20033;-81
2023/01/11 06:21:18;;;;;;;17.17;1.92;;;;;;;;;;5028541;28;20100;-81
2023/01/11 06:23:46;;;;;;;19.15;2.33;;;;;;;;;;5018837;28;20022;-81
2023/01/11 06:26:13;;;;;;;20.27;3.17;;;;;;;;;;5038245;28;20026;-81
2023/01/11 06:28:40;;;;;;;14.68;1.90;;;;;;;;;;5042491;28;20029;-81
2023/01/11 06:31:07;;;;;;;10.13;1.60;;;;;;;;;;5042655;28;20396;-81
2023/01/11 06:33:33;;;;;;;14.95;2.00;;;;;;;;;;5031124;28;20022;-81
2023/01/11 06:36:02;;;;;;;16.77;2.25;;;;;;;;;;5035483;28;20022;-81
2023/01/11 06:38:28;;;;;;;13.25;3.17;;;;;;;;;;5027544;28;20030;-81
2023/01/11 06:40:56;;;;;;;13.02;1.77;;;;;;;;;;5032480;28;20040;-81
2023/01/11 06:43:22;;;;;;;21.60;4.07;;;;;;;;;;5042279;28;20057;-81
2023/01/11 06:45:48;;;;;;;8.40;1.45;;;;;;;;;;5024914;28;20018;-81
2023/01/11 06:48:15;;;;;;;12.63;1.60;;;;;;;;;;5034642;28;20033;-81
2023/01/11 06:50:41;;;;;;;15.80;2.40;;;;;;;;;;5032056;28;20046;-81
2023/01/11 06:53:07;;;;;;;17.70;1.90;;;;;;;;;;5032870;28;20657;-80
2023/01/11 06:55:33;;;;;;;20.73;2.33;;;;;;;;;;5021397;28;20048;-81
2023/01/11 06:57:59;;;;;;;12.52;1.63;;;;;;;;;;5036175;28;20037;-81
2023/01/11 07:00:25;;;;;;;10.43;1.77;;;;;;;;;;5035230;28;20037;-81
2023/01/11 07:03:22;;;;;;;10.57;1.65;;;;;;;;;;5021699;28;20029;-81
2023/01/11 07:05:49;;;;;;;14.52;1.80;;;;;;;;;;5016082;28;20088;-81
2023/01/11 07:08:15;;;;;;;10.82;1.52;;;;;;;;;;5016188;28;20090;-80
2023/01/11 07:10:42;;;;;;;12.45;1.55;;;;;;;;;;5016312;28;20904;-80
2023/01/11 07:13:09;;;;;;;9.60;1.48;;;;;;;;;;5024586;28;20040;-81
2023/01/11 07:15:35;;;;;;;8.68;1.20;;;;;;;;;;5021282;28;20037;-80
2023/01/11 07:18:01;;;;;;;10.32;1.70;;;;;;;;;;5035499;28;20037;-80
2023/01/11 07:20:27;;;;;;;13.05;2.55;;;;;;;;;;5035689;28;20057;-80
2023/01/11 07:23:00;;;;;;;11.75;1.20;;;;;;;;;;5035689;28;20507;-80
2023/01/11 07:25:27;;;;;;;8.95;1.25;;;;;;;;;;5035976;28;20024;-80
2023/01/11 07:27:57;;;;;;;11.90;1.50;;;;;;;;;;5028453;28;20144;-80
2023/01/11 07:30:23;;;;;;;7.20;0.88;;;;;;;;;;5015747;28;20100;-80
2023/01/11 07:32:49;;;;;;;10.15;1.52;;;;;;;;;;5015804;28;20022;-80
2023/01/11 07:35:15;;;;;;;8.57;2.10;;;;;;;;;;5015678;28;20033;-80
2023/01/11 07:37:41;;;;;;;13.82;1.40;;;;;;;;;;5016276;28;20483;-80
2023/01/11 07:40:08;;;;;;;9.68;1.42;;;;;;;;;;5035483;28;20108;-80
2023/01/11 07:45:18;;;;;;;5.05;1.10;;;;;;;;;;5015465;28;20033;-80
2023/01/11 07:47:44;;;;;;;7.32;1.17;;;;;;;;;;5015778;28;20038;-80
2023/01/11 07:50:10;;;;;;;7.03;1.00;;;;;;;;;;5032788;28;20361;-80
2023/01/11 07:52:36;;;;;;;6.60;1.30;;;;;;;;;;5035080;28;20105;-80
2023/01/11 07:55:03;;;;;;;8.35;1.77;;;;;;;;;;5013047;28;20101;-80
2023/01/11 07:57:29;;;;;;;12.25;1.88;;;;;;;;;;5030421;28;20033;-80
2023/01/11 07:59:56;;;;;;;8.48;1.40;;;;;;;;;;5021382;28;20034;-80
2023/01/11 08:02:22;;;;;;;11.48;1.10;;;;;;;;;;5026439;28;20481;-80
2023/01/11 08:04:48;;;;;;;6.70;1.00;;;;;;;;;;5016434;28;20045;-80
2023/01/11 08:07:50;;;;;;;11.93;1.60;;;;;;;;;;5026213;28;20029;-80
2023/01/11 08:10:16;;;;;;;9.63;1.65;;;;;;;;;;5034147;28;20486;-80
2023/01/11 08:15:46;;;;;;;15.32;1.73;;;;;;;;;;5027191;28;20064;-80
2023/01/11 08:18:12;;;;;;;9.88;1.98;;;;;;;;;;5021874;28;20061;-80
2023/01/11 08:20:38;;;;;;;16.17;2.00;;;;;;;;;;5043142;28;20079;-80
2023/01/11 08:23:05;;;;;;;11.88;1.92;;;;;;;;;;5039795;28;20427;-80
2023/01/11 08:25:32;;;;;;;11.30;2.00;;;;;;;;;;5039571;28;20037;-80
2023/01/11 08:28:01;;;;;;;11.55;2.00;;;;;;;;;;5038907;28;20025;-80
2023/01/11 08:30:27;;;;;;;9.93;1.70;;;;;;;;;;5038664;28;20017;-80
2023/01/11 08:32:53;;;;;;;9.57;2.05;;;;;;;;;;5026904;28;20081;-80
2023/01/11 08:35:20;;;;;;;16.52;1.85;;;;;;;;;;5017926;28;20548;-80
2023/01/11 08:37:46;;;;;;;14.95;1.80;;;;;;;;;;5030939;28;20040;-81
2023/01/11 08:40:13;;;;;;;14.23;2.13;;;;;;;;;;5031577;28;20026;-80
2023/01/11 08:42:39;;;;;;;17.05;2.83;;;;;;;;;;5027910;28;20025;-80
2023/01/11 08:45:05;;;;;;;12.98;1.45;;;;;;;;;;5028324;28;20052;-80
2023/01/11 08:47:31;;;;;;;15.15;1.70;;;;;;;;;;5013420;28;20037;-81
2023/01/11 08:49:57;;;;;;;9.93;1.48;;;;;;;;;;5033953;28;20028;-80
2023/01/11 08:52:23;;;;;;;17.50;1.88;;;;;;;;;;5029456;28;20030;-80
2023/01/11 08:54:49;;;;;;;12.65;1.88;;;;;;;;;;5018320;28;20060;-80
2023/01/11 08:57:15;;;;;;;12.15;1.27;;;;;;;;;;5025062;28;20034;-80
2023/01/11 08:59:41;;;;;;;13.02;1.75;;;;;;;;;;4996606;28;20036;-80
2023/01/11 09:02:08;;;;;;;15.75;1.70;;;;;;;;;;5023714;28;20418;-80
2023/01/11 09:04:34;;;;;;;12.48;1.30;;;;;;;;;;5036453;28;20053;-80
2023/01/11 09:07:02;;;;;;;14.23;2.00;;;;;;;;;;5018067;28;20028;-80
2023/01/11 09:09:28;;;;;;;15.68;1.90;;;;;;;;;;5016719;28;20024;-80
2023/01/11 09:11:55;;;;;;;11.30;2.13;;;;;;;;;;5037797;28;20025;-80
2023/01/11 09:14:22;;;;;;;12.45;1.63;;;;;;;;;;5026713;28;20465;-80
2023/01/11 09:16:49;;;;;;;21.48;2.00;;;;;;;;;;5033931;28;20025;-80
2023/01/11 09:19:15;;;;;;;16.63;1.67;;;;;;;;;;5038429;28;20615;-80
2023/01/11 09:21:41;;;;;;;8.85;1.38;;;;;;;;;;5031744;28;20030;-80
2023/01/11 09:24:07;;;;;;;10.25;1.90;;;;;;;;;;5033862;28;20083;-80
2023/01/11 09:26:34;;;;;;;16.15;2.15;;;;;;;;;;5034098;28;20025;-80
2023/01/11 09:29:00;;;;;;;10.82;2.00;;;;;;;;;;5034449;28;20104;-80
2023/01/11 09:31:26;;;;;;;12.40;1.85;;;;;;;;;;5026122;28;20053;-80
2023/01/11 09:33:52;;;;;;;8.82;1.48;;;;;;;;;;5021523;28;20018;-80
2023/01/11 09:36:20;;;;;;;8.63;1.40;;;;;;;;;;5032504;28;20091;-80
2023/01/11 09:38:49;;;;;;;14.60;2.33;;;;;;;;;;5033805;28;20528;-80
2023/01/11 09:41:18;;;;;;;9.73;1.58;;;;;;;;;;5043764;28;20022;-80
2023/01/11 09:44:08;;;;;;;19.42;2.47;;;;;;;;;;5030810;28;20423;-80
2023/01/11 09:46:37;;;;;;;15.52;1.85;;;;;;;;;;5024851;28;20519;-80
2023/01/11 09:49:05;;;;;;;12.57;1.63;;;;;;;;;;5016380;28;20036;-79
2023/01/11 09:51:33;;;;;;;12.80;1.90;;;;;;;;;;5030038;28;20022;-79
2023/01/11 09:54:02;;;;;;;8.45;1.48;;;;;;;;;;5032410;28;20032;-79
2023/01/11 09:56:33;;;;;;;15.27;1.80;;;;;;;;;;5022432;28;20018;-79
2023/01/11 09:58:58;;;;;;;8.88;1.48;;;;;;;;;;5013675;28;20072;-79
2023/01/11 10:01:37;;;;;;;11.38;2.10;;;;;;;;;;5015885;28;20084;-79
2023/01/11 10:04:24;;;;;;;10.70;1.88;;;;;;;;;;5015839;28;20104;-78
2023/01/11 10:06:50;;;;;;;19.95;2.85;;;;;;;;;;5013884;28;20072;-79
2023/01/11 10:09:20;;;;;;;18.15;1.73;;;;;;;;;;5027126;28;20104;-78
2023/01/11 10:11:47;;;;;;;16.47;2.10;;;;;;;;;;5035980;28;20029;-79
2023/01/11 10:14:22;;;;;;;13.35;3.05;;;;;;;;;;5039451;28;20021;-79
2023/01/11 10:17:06;;;;;;;17.98;2.33;;;;;;;;;;5042135;28;20121;-79
2023/01/11 10:19:53;;;;;;;12.13;1.63;;;;;;;;;;5040550;28;20056;-79
2023/01/11 10:22:23;;;;;;;14.15;2.42;;;;;;;;;;5023533;28;20093;-79
2023/01/11 10:25:03;;;;;;;15.20;2.10;;;;;;;;;;5041093;28;20028;-79
2023/01/11 10:27:36;;;;;;;13.82;2.35;;;;;;;;;;5039080;28;20021;-79
2023/01/11 10:30:13;;;;;;;7.88;1.50;;;;;;;;;;5033537;28;20026;-79
2023/01/11 10:32:56;;;;;;;16.40;3.85;;;;;;;;;;5026178;28;20029;-79
2023/01/11 10:35:53;;;;;;;12.57;2.10;;;;;;;;;;5034738;28;20026;-79
2023/01/11 10:41:37;;;;;;;11.02;1.73;;;;;;;;;;5042439;28;20083;-79
2023/01/11 10:44:09;;;;;;;12.63;2.53;;;;;;;;;;5027748;28;20033;-79
2023/01/11 10:46:42;;;;;;;16.25;2.42;;;;;;;;;;5039842;28;20029;-79
2023/01/11 10:49:20;;;;;;;12.38;1.88;;;;;;;;;;5023339;28;20030;-79
2023/01/11 10:51:47;;;;;;;16.15;1.85;;;;;;;;;;5033607;28;20029;-79
2023/01/11 10:54:21;;;;;;;15.43;1.92;;;;;;;;;;5037195;28;20028;-79
2023/01/11 10:57:07;;;;;;;11.68;1.83;;;;;;;;;;5033737;28;20097;-79
2023/01/11 10:59:40;;;;;;;17.25;2.95;;;;;;;;;;5022806;28;20026;-79
2023/01/11 11:02:24;;;;;;;14.48;1.70;;;;;;;;;;5037278;28;20029;-79
2023/01/11 11:05:09;;;;;;;10.85;2.10;;;;;;;;;;5037250;28;20045;-80
2023/01/11 11:07:38;;;;;;;14.63;2.13;;;;;;;;;;5025551;28;20041;-80
2023/01/11 11:10:14;;;;;;;15.32;1.88;;;;;;;;;;5040184;28;20026;-80
2023/01/11 11:12:43;;;;;;;13.55;2.20;;;;;;;;;;5040377;28;20037;-80
2023/01/11 11:15:27;;;;;;;14.65;3.03;;;;;;;;;;5028596;28;20385;-79
2023/01/11 11:17:54;;;;;;;18.38;2.13;;;;;;;;;;5016908;28;20069;-79
2023/01/11 11:20:21;;;;;;;14.82;2.42;;;;;;;;;;5018868;28;20033;-78
2023/01/11 11:22:55;;;;;;;14.45;2.50;;;;;;;;;;5035313;28;20108;-78
2023/01/11 11:25:26;;;;;;;14.60;3.05;;;;;;;;;;5036436;28;20017;-78
2023/01/11 11:27:56;;;;;;;9.65;1.70;;;;;;;;;;5035022;28;20022;-78
2023/01/11 11:30:22;;;;;;;;;;;;;;;;;;5028018;28;20025;-78
2023/01/11 11:32:54;;;;;;;14.40;2.70;;;;;;;;;;5036319;28;19905;-78
2023/01/11 11:35:30;;;;;;;14.40;2.45;;;;;;;;;;5029617;28;20057;-78
2023/01/11 11:37:56;;;;;;;15.57;1.77;;;;;;;;;;5033985;28;20362;-78
2023/01/11 11:40:29;;;;;;;14.63;2.30;;;;;;;;;;5017440;28;20435;-78
2023/01/11 11:43:13;;;;;;;12.77;2.47;;;;;;;;;;5016075;28;20361;-78
2023/01/11 11:45:53;;;;;;;14.50;2.15;;;;;;;;;;5030075;28;20021;-78
2023/01/11 11:48:19;;;;;;;20.17;2.78;;;;;;;;;;5028316;28;20084;-78
2023/01/11 11:50:46;;;;;;;15.05;2.00;;;;;;;;;;5037901;28;20025;-79
2023/01/11 11:53:19;;;;;;;12.63;2.45;;;;;;;;;;5040641;28;20057;-80
2023/01/11 11:55:46;;;;;;;21.92;3.13;;;;;;;;;;5023119;28;20033;-79
2023/01/11 11:58:15;;;;;;;12.77;1.88;;;;;;;;;;5035235;28;20037;-79
2023/01/11 12:00:45;;;;;;;14.35;1.75;;;;;;;;;;5029282;28;20033;-79
2023/01/11 12:03:15;;;;;;;18.90;2.55;;;;;;;;;;5026622;28;20139;-78
2023/01/11 12:05:50;;;;;;;10.05;1.52;;;;;;;;;;5027043;28;20053;-79
2023/01/11 12:08:17;;;;;;;18.88;2.65;;;;;;;;;;5039318;28;20407;-79
2023/01/11 12:10:51;;;;;;;17.17;2.08;;;;;;;;;;5038675;28;20030;-79
2023/01/11 12:13:34;;;;;;;13.93;2.13;;;;;;;;;;5035425;28;20026;-79
2023/01/11 12:16:02;;;;;;;15.70;1.77;;;;;;;;;;5034884;28;20029;-80
2023/01/11 12:18:46;;;;;;;18.63;3.53;;;;;;;;;;5042071;28;20037;-79
2023/01/11 12:21:22;;;;;;;11.70;2.05;;;;;;;;;;5034460;28;20087;-80
2023/01/11 12:24:07;;;;;;;18.08;2.33;;;;;;;;;;5022732;28;20026;-79
2023/01/11 12:26:36;;;;;;;16.05;2.03;;;;;;;;;;5025296;28;20021;-79
2023/01/11 12:29:11;;;;;;;16.50;1.95;;;;;;;;;;5037806;28;20506;-79
2023/01/11 12:31:40;;;;;;;14.20;2.10;;;;;;;;;;5033400;28;20460;-79
2023/01/11 12:34:09;;;;;;;19.13;2.42;;;;;;;;;;5040050;28;20061;-79
2023/01/11 12:36:56;;;;;;;18.58;2.85;;;;;;;;;;5021787;28;20499;-79
2023/01/11 12:39:34;;;;;;;17.35;2.70;;;;;;;;;;5038753;28;20033;-80
2023/01/11 12:42:19;;;;;;;18.55;2.42;;;;;;;;;;5036695;28;20101;-79
2023/01/11 12:45:04;;;;;;;13.65;2.47;;;;;;;;;;5022912;28;20485;-79
2023/01/11 12:47:45;;;;;;;17.15;3.50;;;;;;;;;;5028138;28;20026;-79
2023/01/11 12:50:21;;;;;;;16.92;2.53;;;;;;;;;;5034185;28;20069;-79
2023/01/11 12:53:25;;;;;;;19.42;3.45;;;;;;;;;;5017701;28;20034;-79
2023/01/11 12:55:54;;;;;;;15.80;2.72;;;;;;;;;;4977758;28;20603;-79
2023/01/11 12:58:26;;;;;;;17.15;2.85;;;;;;;;;;4974673;28;20505;-79
2023/01/11 13:00:52;;;;;;;13.48;2.60;;;;;;;;;;5010121;28;20042;-80
2023/01/11 13:03:37;;;;;;;16.38;2.60;;;;;;;;;;5015849;28;20418;-79
2023/01/11 13:06:14;;;;;;;19.17;2.92;;;;;;;;;;5030671;28;20496;-79
2023/01/11 13:08:43;;;;;;;16.15;2.38;;;;;;;;;;5001679;28;20097;-79
2023/01/11 13:11:33;;;;;;;20.27;3.03;;;;;;;;;;5037280;28;20080;-79
2023/01/11 13:14:13;;;;;;;15.65;3.88;;;;;;;;;;5029612;28;20113;-79
2023/01/11 13:16:45;;;;;;;14.70;2.83;;;;;;;;;;5036463;28;20013;-79
2023/01/11 13:19:16;;;;;;;14.82;1.92;;;;;;;;;;5033202;28;20037;-79
2023/01/11 13:21:43;;;;;;;24.42;2.60;;;;;;;;;;5034814;28;20037;-79
2023/01/11 13:24:15;;;;;;;16.20;2.28;;;;;;;;;;5034778;28;20484;-79
2023/01/11 13:26:43;;;;;;;15.88;2.00;;;;;;;;;;5029641;28;20454;-79
2023/01/11 13:29:14;;;;;;;18.25;2.78;;;;;;;;;;5037330;28;20353;-79
2023/01/11 13:31:40;;;;;;;19.48;2.60;;;;;;;;;;5032523;28;20037;-79
2023/01/11 13:34:11;;;;;;;19.77;2.65;;;;;;;;;;5032637;28;20029;-79
2023/01/11 13:36:40;;;;;;;13.95;1.75;;;;;;;;;;5036437;28;20056;-79
2023/01/11 13:39:22;;;;;;;16.17;2.53;;;;;;;;;;5021244;28;20447;-79
2023/01/11 13:41:52;;;;;;;21.20;2.72;;;;;;;;;;5036764;28;20025;-79
2023/01/11 13:44:23;;;;;;;19.17;2.10;;;;;;;;;;5035384;28;20545;-79
2023/01/11 13:46:59;;;;;;;17.15;2.50;;;;;;;;;;5019281;28;20384;-79
2023/01/11 13:49:48;;;;;;;17.23;2.30;;;;;;;;;;5035450;28;20425;-79
2023/01/11 13:52:15;;;;;;;21.35;2.78;;;;;;;;;;5041294;28;20384;-79
2023/01/11 13:54:48;;;;;;;15.95;1.88;;;;;;;;;;5034434;28;20567;-79
2023/01/11 13:57:33;;;;;;;18.95;2.42;;;;;;;;;;5035538;28;20073;-79
2023/01/11 14:00:06;;;;;;;20.90;2.83;;;;;;;;;;5034613;28;20037;-79
2023/01/11 14:02:39;;;;;;;17.25;2.33;;;;;;;;;;5027082;28;20350;-79
2023/01/11 14:05:20;;;;;;;27.92;3.22;;;;;;;;;;5026490;28;20638;-79
2023/01/11 14:07:46;;;;;;;;;;;;;;;;;;5035910;28;20037;-79
2023/01/11 14:10:30;;;;;;;10.55;2.10;;;;;;;;;;5025000;28;19906;-79
2023/01/11 14:14:11;;;;;;;19.20;2.38;;;;;;;;;;5037651;28;20491;-79
2023/01/11 14:16:07;;;;;;;12.85;2.15;;;;;;;;;;5041795;28;20029;-79
2023/01/11 14:18:41;;;;;;;21.02;1.88;;;;;;;;;;5041920;28;20037;-79
2023/01/11 14:21:33;;;;;;;18.02;2.58;;;;;;;;;;5025307;28;20038;-79
2023/01/11 14:24:00;;;;;;;19.63;2.28;;;;;;;;;;5035355;28;20030;-79
2023/01/11 14:26:45;;;;;;;15.63;2.53;;;;;;;;;;5016016;28;20099;-79
2023/01/11 14:29:11;;;;;;;15.68;2.47;;;;;;;;;;5039844;28;20556;-79
2023/01/11 14:31:40;;;;;;;18.33;2.88;;;;;;;;;;5031346;28;20057;-79
2023/01/11 14:34:18;;;;;;;16.35;2.08;;;;;;;;;;5039133;28;20516;-79
2023/01/11 14:37:03;;;;;;;19.38;2.38;;;;;;;;;;5042749;28;20025;-79
2023/01/11 14:39:39;;;;;;;20.20;2.80;;;;;;;;;;5029710;28;20113;-79
2023/01/11 14:42:17;;;;;;;12.88;2.13;;;;;;;;;;5022935;28;20711;-79
2023/01/11 14:44:46;;;;;;;18.60;1.98;;;;;;;;;;5035618;28;20025;-79
2023/01/11 14:47:31;;;;;;;16.75;2.50;;;;;;;;;;5043005;28;20025;-79
2023/01/11 14:50:15;;;;;;;16.75;2.17;;;;;;;;;;5038581;28;20040;-79
2023/01/11 14:52:43;;;;;;;16.95;3.25;;;;;;;;;;5028785;28;20038;-79
2023/01/11 14:55:21;;;;;;;12.27;2.00;;;;;;;;;;5038931;28;20625;-79
2023/01/11 14:57:56;;;;;;;15.32;2.38;;;;;;;;;;5037950;28;20538;-79
2023/01/11 15:00:22;;;;;;;16.08;2.17;;;;;;;;;;5024032;28;20033;-79
2023/01/11 15:03:00;;;;;;;12.23;2.38;;;;;;;;;;5042309;28;20074;-79
2023/01/11 15:05:30;;;;;;;11.07;2.47;;;;;;;;;;5035915;28;20125;-79
2023/01/11 15:08:14;;;;;;;16.73;3.37;;;;;;;;;;5032195;28;20026;-79
2023/01/11 15:10:46;;;;;;;13.95;2.13;;;;;;;;;;5018071;28;20029;-78
2023/01/11 15:13:14;;;;;;;18.60;2.17;;;;;;;;;;5018323;28;20496;-79
2023/01/11 15:18:25;;;;;;;12.00;2.40;;;;;;;;;;5036671;28;20124;-79
2023/01/11 15:20:53;;;;;;;18.10;2.85;;;;;;;;;;5038515;28;20423;-79
2023/01/11 15:23:20;;;;;;;16.85;2.40;;;;;;;;;;5024343;28;20465;-79